createdAt,value
2018-12-17T00:01:10.832Z,3.60
2018-12-17T00:03:45.917Z,3.60
2018-12-17T00:06:15.361Z,3.60
2018-12-17T00:08:44.954Z,3.60
2018-12-17T00:11:20.178Z,3.60
2018-12-17T00:13:50.802Z,3.60
2018-12-17T00:16:20.194Z,3.60
2018-12-17T00:18:49.211Z,3.50
2018-12-17T00:21:24.011Z,3.50
2018-12-17T00:23:54.054Z,3.40
2018-12-17T00:26:23.454Z,3.50
2018-12-17T00:28:56.742Z,3.50
2018-12-17T00:31:32.177Z,3.50
2018-12-17T00:34:01.186Z,3.50
2018-12-17T00:36:32.783Z,3.50
2018-12-17T00:39:03.394Z,3.50
2018-12-17T00:41:38.398Z,3.50
2018-12-17T00:44:07.394Z,3.50
2018-12-17T00:46:36.397Z,3.50
2018-12-17T00:49:09.525Z,3.50
2018-12-17T00:51:41.782Z,3.50
2018-12-17T00:54:14.790Z,3.50
2018-12-17T00:56:50.129Z,3.50
2018-12-17T00:59:20.642Z,3.50
2018-12-17T01:01:50.047Z,3.50
2018-12-17T01:04:19.137Z,3.50
2018-12-17T01:06:48.530Z,3.50
2018-12-17T01:09:18.078Z,3.60
2018-12-17T01:11:52.946Z,3.60
2018-12-17T01:14:22.174Z,3.70
2018-12-17T01:16:51.567Z,3.60
2018-12-17T01:19:27.263Z,3.60
2018-12-17T01:21:57.042Z,3.60
2018-12-17T01:24:26.497Z,3.60
2018-12-17T01:26:57.229Z,3.60
2018-12-17T01:29:27.537Z,3.60
2018-12-17T01:32:00.455Z,3.50
2018-12-17T01:34:33.746Z,3.50
2018-12-17T01:37:06.881Z,3.50
2018-12-17T01:39:41.682Z,3.50
2018-12-17T01:42:11.329Z,3.50
2018-12-17T01:44:40.482Z,3.50
2018-12-17T01:47:12.406Z,3.60
2018-12-17T01:49:41.394Z,3.60
2018-12-17T01:52:10.391Z,3.60
2018-12-17T01:54:39.986Z,3.60
2018-12-17T01:57:15.342Z,3.60
2018-12-17T01:59:46.530Z,3.70
2018-12-17T02:02:18.742Z,3.70
2018-12-17T02:04:48.142Z,3.80
2018-12-17T02:07:17.203Z,3.80
2018-12-17T02:09:48.022Z,3.80
2018-12-17T02:12:17.411Z,3.80
2018-12-17T02:14:52.242Z,3.90
2018-12-17T02:17:27.066Z,3.90
2018-12-17T02:20:00.621Z,4.00
2018-12-17T02:22:33.522Z,4.00
2018-12-17T02:25:03.794Z,3.90
2018-12-17T02:27:38.874Z,3.90
2018-12-17T02:30:09.971Z,4.00
2018-12-17T02:32:41.163Z,4.00
2018-12-17T02:35:15.962Z,4.00
2018-12-17T02:37:48.070Z,4.00
2018-12-17T02:40:21.498Z,4.10
2018-12-17T02:42:50.490Z,4.10
2018-12-17T02:45:23.462Z,4.00
2018-12-17T02:47:58.894Z,4.10
2018-12-17T02:50:34.798Z,4.10
2018-12-17T02:53:04.534Z,4.20
2018-12-17T02:55:37.151Z,4.20
2018-12-17T02:58:06.152Z,4.30
2018-12-17T03:00:38.947Z,4.30
2018-12-17T03:06:12.230Z,4.20
2018-12-17T03:08:43.042Z,4.20
2018-12-17T03:11:16.277Z,4.20
2018-12-17T03:13:50.818Z,4.20
2018-12-17T03:16:19.850Z,4.20
2018-12-17T03:18:52.263Z,4.30
2018-12-17T03:21:21.913Z,4.20
2018-12-17T03:23:57.551Z,4.30
2018-12-17T03:26:28.966Z,4.30
2018-12-17T03:29:02.052Z,4.30
2018-12-17T03:31:33.278Z,4.30
2018-12-17T03:34:02.278Z,4.40
2018-12-17T03:36:31.718Z,4.40
2018-12-17T03:39:01.375Z,4.40
2018-12-17T03:41:30.371Z,4.40
2018-12-17T03:44:04.126Z,4.40
2018-12-17T03:46:33.522Z,4.40
2018-12-17T03:49:08.215Z,4.40
2018-12-17T03:51:40.507Z,4.40
2018-12-17T03:54:09.759Z,4.50
2018-12-17T03:56:40.550Z,4.50
2018-12-17T03:59:12.875Z,4.50
2018-12-17T04:01:47.868Z,4.50
2018-12-17T04:04:21.600Z,4.40
2018-12-17T04:06:50.578Z,4.40
2018-12-17T04:09:25.224Z,4.40
2018-12-17T04:12:01.198Z,4.40
2018-12-17T04:14:33.286Z,4.30
2018-12-17T04:17:06.593Z,4.40
2018-12-17T04:22:06.422Z,4.50
2018-12-17T04:24:37.651Z,4.50
2018-12-17T04:27:10.342Z,4.50
2018-12-17T04:29:41.450Z,4.50
2018-12-17T04:32:16.658Z,4.50
2018-12-17T04:34:52.165Z,4.50
2018-12-17T04:37:24.578Z,4.50
2018-12-17T04:39:53.574Z,4.40
2018-12-17T04:42:29.298Z,4.50
2018-12-17T04:45:01.597Z,4.50
2018-12-17T04:47:37.086Z,4.60
2018-12-17T04:50:11.690Z,4.60
2018-12-17T04:52:46.839Z,4.60
2018-12-17T04:55:21.339Z,4.60
2018-12-17T04:57:51.127Z,4.60
2018-12-17T05:00:21.168Z,4.60
2018-12-17T05:02:54.339Z,4.60
2018-12-17T05:05:25.718Z,4.70
2018-12-17T05:08:00.565Z,4.60
2018-12-17T05:10:33.751Z,4.70
2018-12-17T05:13:08.251Z,4.80
2018-12-17T05:15:43.142Z,4.80
2018-12-17T05:18:13.617Z,4.80
2018-12-17T05:20:47.642Z,4.70
2018-12-17T05:23:22.586Z,4.70
2018-12-17T05:25:57.888Z,4.70
2018-12-17T05:28:33.186Z,4.70
2018-12-17T05:31:08.839Z,4.70
2018-12-17T05:33:44.109Z,4.70
2018-12-17T05:36:13.813Z,4.80
2018-12-17T05:38:46.408Z,4.80
2018-12-17T05:41:16.046Z,4.90
2018-12-17T05:43:45.059Z,4.80
2018-12-17T05:46:16.071Z,4.80
2018-12-17T05:48:50.933Z,4.90
2018-12-17T05:51:20.308Z,4.90
2018-12-17T05:53:55.382Z,4.90
2018-12-17T05:56:24.723Z,4.90
2018-12-17T05:58:53.722Z,4.90
2018-12-17T06:01:22.742Z,4.90
2018-12-17T06:03:58.250Z,4.90
2018-12-17T06:06:29.142Z,4.90
2018-12-17T06:09:02.673Z,4.90
2018-12-17T06:11:32.998Z,5.00
2018-12-17T06:14:06.106Z,5.00
2018-12-17T06:16:38.295Z,5.00
2018-12-17T06:19:11.035Z,5.00
2018-12-17T06:21:44.275Z,5.00
2018-12-17T06:24:13.266Z,5.00
2018-12-17T06:26:45.954Z,5.00
2018-12-17T06:29:20.658Z,5.00
2018-12-17T06:31:52.886Z,4.90
2018-12-17T06:34:22.386Z,5.00
2018-12-17T06:36:51.402Z,5.00
2018-12-17T06:39:26.944Z,5.10
2018-12-17T06:42:00.182Z,5.10
2018-12-17T06:44:32.751Z,5.10
2018-12-17T06:47:05.159Z,5.20
2018-12-17T06:49:40.020Z,5.10
2018-12-17T06:52:09.410Z,5.10
2018-12-17T06:54:45.027Z,5.10
2018-12-17T06:57:14.032Z,5.10
2018-12-17T06:59:49.201Z,5.20
2018-12-17T07:02:24.945Z,5.20
2018-12-17T07:04:57.592Z,5.10
2018-12-17T07:07:26.598Z,5.20
2018-12-17T07:10:02.189Z,5.20
2018-12-17T07:12:37.598Z,5.10
2018-12-17T07:15:12.268Z,5.20
2018-12-17T07:17:41.258Z,5.20
2018-12-17T07:20:14.486Z,5.20
2018-12-17T07:22:47.391Z,5.20
2018-12-17T07:25:19.909Z,5.20
2018-12-17T07:27:50.614Z,5.20
2018-12-17T07:30:20.033Z,5.30
2018-12-17T07:32:54.510Z,5.20
2018-12-17T07:35:24.826Z,5.30
2018-12-17T07:37:59.286Z,5.30
2018-12-17T07:40:31.553Z,5.30
2018-12-17T07:43:02.658Z,5.30
2018-12-17T07:45:35.590Z,5.30
2018-12-17T07:48:07.950Z,5.30
2018-12-17T07:50:43.131Z,5.30
2018-12-17T07:53:12.106Z,5.30
2018-12-17T07:55:46.579Z,5.30
2018-12-17T07:58:18.946Z,5.40
2018-12-17T08:00:50.083Z,5.40
2018-12-17T08:03:19.159Z,5.40
2018-12-17T08:05:51.756Z,5.50
2018-12-17T08:08:26.734Z,5.50
2018-12-17T08:10:57.450Z,5.50
2018-12-17T08:13:30.535Z,5.60
2018-12-17T08:16:03.573Z,5.50
2018-12-17T08:18:38.014Z,5.60
2018-12-17T08:21:07.415Z,5.60
2018-12-17T08:23:42.134Z,5.70
2018-12-17T08:26:16.738Z,5.60
2018-12-17T08:28:55.678Z,5.60
2018-12-17T08:31:30.283Z,5.60
2018-12-17T08:34:06.351Z,5.70
2018-12-17T08:36:40.858Z,5.70
2018-12-17T08:39:13.130Z,5.70
2018-12-17T08:41:47.674Z,5.80
2018-12-17T08:44:16.675Z,5.80
2018-12-17T08:46:45.674Z,5.90
2018-12-17T08:49:20.512Z,5.80
2018-12-17T08:51:54.123Z,5.80
2018-12-17T08:54:23.553Z,5.90
2018-12-17T08:56:53.334Z,5.90
2018-12-17T08:59:26.850Z,5.80
2018-12-17T09:02:01.922Z,5.90
2018-12-17T09:04:31.323Z,5.90
2018-12-17T09:07:04.434Z,5.90
2018-12-17T09:09:36.754Z,6.00
2018-12-17T09:12:06.398Z,6.00
2018-12-17T09:14:37.887Z,6.00
2018-12-17T09:17:12.613Z,6.00
2018-12-17T09:19:47.381Z,6.00
2018-12-17T09:22:17.170Z,6.00
2018-12-17T09:24:52.139Z,6.10
2018-12-17T09:27:27.375Z,6.10
2018-12-17T09:29:56.986Z,6.10
2018-12-17T09:32:26.465Z,6.20
2018-12-17T09:35:01.924Z,6.20
2018-12-17T09:37:38.696Z,6.20
2018-12-17T09:40:10.294Z,6.30
2018-12-17T09:42:41.376Z,6.30
2018-12-17T09:45:14.150Z,6.30
2018-12-17T09:47:49.722Z,6.30
2018-12-17T09:50:23.326Z,6.30
2018-12-17T09:52:52.699Z,6.40
2018-12-17T09:55:28.786Z,6.40
2018-12-17T09:58:04.255Z,6.40
2018-12-17T10:00:39.510Z,6.50
2018-12-17T10:03:09.826Z,6.40
2018-12-17T10:05:43.024Z,6.50
2018-12-17T10:08:17.810Z,6.50
2018-12-17T10:10:50.466Z,6.60
2018-12-17T10:13:20.014Z,6.60
2018-12-17T10:15:49.225Z,6.60
2018-12-17T10:18:18.258Z,6.70
2018-12-17T10:20:51.749Z,6.70
2018-12-17T10:23:22.590Z,6.70
2018-12-17T10:25:55.684Z,6.70
2018-12-17T10:28:24.975Z,6.70
2018-12-17T10:30:54.370Z,6.70
2018-12-17T10:33:26.677Z,6.80
2018-12-17T10:35:55.670Z,6.90
2018-12-17T10:38:28.882Z,6.90
2018-12-17T10:40:57.887Z,6.90
2018-12-17T10:43:26.879Z,6.90
2018-12-17T10:45:55.891Z,7.00
2018-12-17T10:48:31.219Z,7.00
2018-12-17T10:51:00.766Z,7.00
2018-12-17T10:53:32.054Z,7.00
2018-12-17T10:56:01.306Z,7.00
2018-12-17T10:58:30.310Z,7.00
2018-12-17T11:01:06.990Z,7.00
2018-12-17T11:03:49.526Z,7.00
2018-12-17T11:06:25.318Z,7.00
2018-12-17T11:08:54.606Z,7.10
2018-12-17T11:11:29.150Z,7.10
2018-12-17T11:14:01.462Z,7.10
2018-12-17T11:16:34.377Z,7.10
2018-12-17T11:19:03.950Z,7.20
2018-12-17T11:21:39.507Z,7.20
2018-12-17T11:24:12.806Z,7.20
2018-12-17T11:26:42.201Z,7.20
2018-12-17T11:29:14.299Z,7.20
2018-12-17T11:31:43.307Z,7.20
2018-12-17T11:34:13.910Z,7.20
2018-12-17T11:36:43.712Z,7.20
2018-12-17T11:39:15.538Z,7.30
2018-12-17T11:41:50.894Z,7.30
2018-12-17T11:44:23.418Z,7.30
2018-12-17T11:46:52.874Z,7.30
2018-12-17T11:49:27.911Z,7.30
2018-12-17T11:52:01.320Z,7.30
2018-12-17T11:54:36.799Z,7.30
2018-12-17T11:58:14.502Z,7.30
2018-12-17T12:01:06.193Z,7.30
2018-12-17T12:03:39.730Z,7.30
2018-12-17T12:06:13.876Z,7.30
2018-12-17T12:08:44.583Z,7.30
2018-12-17T12:11:15.714Z,7.30
2018-12-17T12:13:53.232Z,7.30
2018-12-17T12:16:22.841Z,7.30
2018-12-17T12:18:52.273Z,7.30
2018-12-17T12:21:28.630Z,7.30
2018-12-17T12:24:03.491Z,7.40
2018-12-17T12:26:33.147Z,7.40
2018-12-17T12:29:06.253Z,7.40
2018-12-17T12:31:40.990Z,7.40
2018-12-17T12:34:10.376Z,7.50
2018-12-17T12:36:40.003Z,7.50
2018-12-17T12:39:09.650Z,7.50
2018-12-17T12:41:38.954Z,7.50
2018-12-17T12:44:08.952Z,7.50
2018-12-17T12:46:44.162Z,7.50
2018-12-17T12:49:13.166Z,7.50
2018-12-17T12:51:46.370Z,7.50
2018-12-17T12:54:21.838Z,7.50
2018-12-17T12:56:56.521Z,7.50
2018-12-17T12:59:29.266Z,7.50
2018-12-17T13:02:04.686Z,7.50
2018-12-17T13:04:39.342Z,7.50
2018-12-17T13:07:12.287Z,7.50
2018-12-17T13:09:46.974Z,7.50
2018-12-17T13:12:17.441Z,7.50
2018-12-17T13:14:46.750Z,7.50
2018-12-17T13:17:25.178Z,7.50
2018-12-17T13:19:58.189Z,7.50
2018-12-17T13:22:30.260Z,7.60
2018-12-17T13:25:04.853Z,7.60
2018-12-17T13:27:38.621Z,7.60
2018-12-17T13:30:13.518Z,7.60
2018-12-17T13:32:46.390Z,7.60
2018-12-17T13:35:18.949Z,7.60
2018-12-17T13:37:53.914Z,7.60
2018-12-17T13:40:26.162Z,7.60
2018-12-17T13:43:01.334Z,7.60
2018-12-17T13:45:31.730Z,7.60
2018-12-17T13:48:05.378Z,7.50
2018-12-17T13:50:39.722Z,7.50
2018-12-17T13:53:14.790Z,7.50
2018-12-17T13:55:47.685Z,7.50
2018-12-17T13:58:20.754Z,7.50
2018-12-17T14:00:50.134Z,7.50
2018-12-17T14:03:25.127Z,7.50
2018-12-17T14:05:57.658Z,7.50
2018-12-17T14:08:32.359Z,7.50
2018-12-17T14:11:05.762Z,7.50
2018-12-17T14:13:35.014Z,7.50
2018-12-17T14:16:09.726Z,7.50
2018-12-17T14:18:49.502Z,7.50
2018-12-17T14:21:25.739Z,7.50
2018-12-17T14:23:54.740Z,7.50
2018-12-17T14:26:29.190Z,7.50
2018-12-17T14:28:58.574Z,7.50
2018-12-17T14:31:33.651Z,7.50
2018-12-17T14:34:08.342Z,7.50
2018-12-17T14:36:40.762Z,7.50
2018-12-17T14:39:10.435Z,7.50
2018-12-17T14:41:43.726Z,7.50
2018-12-17T14:44:22.583Z,7.50
2018-12-17T14:46:58.528Z,7.50
2018-12-17T14:49:31.199Z,7.50
2018-12-17T14:52:03.978Z,7.60
2018-12-17T14:54:36.914Z,7.60
2018-12-17T14:57:11.805Z,7.50
2018-12-17T14:59:45.574Z,7.60
2018-12-17T15:02:19.359Z,7.50
2018-12-17T15:04:54.202Z,7.50
2018-12-17T15:07:27.231Z,7.60
2018-12-17T15:10:00.295Z,7.50
2018-12-17T15:12:29.333Z,7.50
2018-12-17T15:15:05.579Z,7.60
2018-12-17T15:17:36.354Z,7.50
2018-12-17T15:20:08.806Z,7.50
2018-12-17T15:22:38.566Z,7.50
2018-12-17T15:25:09.212Z,7.50
2018-12-17T15:27:44.467Z,7.40
2018-12-17T15:30:15.431Z,7.40
2018-12-17T15:32:44.374Z,7.40
2018-12-17T15:35:16.911Z,7.40
2018-12-17T15:37:47.270Z,7.40
2018-12-17T15:40:18.190Z,7.40
2018-12-17T15:42:53.450Z,7.40
2018-12-17T15:45:22.744Z,7.40
2018-12-17T15:47:55.691Z,7.40
2018-12-17T15:50:28.434Z,7.40
2018-12-17T15:53:03.655Z,7.50
2018-12-17T15:55:39.354Z,7.50
2018-12-17T15:58:08.598Z,7.50
2018-12-17T16:00:39.302Z,7.50
2018-12-17T16:03:08.594Z,7.50
2018-12-17T16:05:41.070Z,7.50
2018-12-17T16:08:14.962Z,7.40
2018-12-17T16:10:47.633Z,7.40
2018-12-17T16:13:24.342Z,7.40
2018-12-17T16:15:59.558Z,7.40
2018-12-17T16:18:32.698Z,7.30
2018-12-17T16:21:05.834Z,7.30
2018-12-17T16:23:40.698Z,7.20
2018-12-17T16:26:17.790Z,7.20
2018-12-17T16:28:47.723Z,7.20
2018-12-17T16:31:17.505Z,7.20
2018-12-17T16:33:49.792Z,7.20
2018-12-17T16:36:19.798Z,7.20
2018-12-17T16:38:51.027Z,7.10
2018-12-17T16:41:26.354Z,7.10
2018-12-17T16:44:01.536Z,7.10
2018-12-17T16:46:34.239Z,7.10
2018-12-17T16:49:05.267Z,7.10
2018-12-17T16:51:34.675Z,7.10
2018-12-17T16:54:07.498Z,7.10
2018-12-17T16:56:42.651Z,7.10
2018-12-17T16:59:13.681Z,7.10
2018-12-17T17:01:42.875Z,7.00
2018-12-17T17:04:12.251Z,7.00
2018-12-17T17:06:45.613Z,7.00
2018-12-17T17:09:14.790Z,7.00
2018-12-17T17:11:44.182Z,6.90
2018-12-17T17:14:13.462Z,6.90
2018-12-17T17:16:48.299Z,6.90
2018-12-17T17:19:17.659Z,6.90
2018-12-17T17:21:50.086Z,6.90
2018-12-17T17:24:25.538Z,6.90
2018-12-17T17:26:57.178Z,6.90
2018-12-17T17:29:32.553Z,6.80
2018-12-17T17:32:11.584Z,6.80
2018-12-17T17:34:44.462Z,6.80
2018-12-17T17:37:13.670Z,6.70
2018-12-17T17:39:43.383Z,6.70
2018-12-17T17:42:13.202Z,6.70
2018-12-17T17:44:44.362Z,6.60
2018-12-17T17:47:15.374Z,6.60
2018-12-17T17:49:49.963Z,6.60
2018-12-17T17:52:22.538Z,6.50
2018-12-17T17:54:55.122Z,6.50
2018-12-17T17:57:30.610Z,6.40
2018-12-17T17:59:59.618Z,6.30
2018-12-17T18:02:32.231Z,6.30
2018-12-17T18:05:05.711Z,6.30
2018-12-17T18:07:35.352Z,6.30
2018-12-17T18:10:06.786Z,6.20
2018-12-17T18:12:37.295Z,6.20
2018-12-17T18:15:09.092Z,6.20
2018-12-17T18:17:44.002Z,6.10
2018-12-17T18:20:16.465Z,6.10
2018-12-17T18:22:49.697Z,6.10
2018-12-17T18:25:22.471Z,6.00
2018-12-17T18:27:55.074Z,6.00
2018-12-17T18:30:30.051Z,6.00
2018-12-17T18:33:04.706Z,6.00
2018-12-17T18:35:34.887Z,6.00
2018-12-17T18:38:05.098Z,6.00
2018-12-17T18:40:39.622Z,6.10
2018-12-17T18:43:14.504Z,6.10
2018-12-17T18:45:47.167Z,6.10
2018-12-17T18:48:22.426Z,6.10
2018-12-17T18:50:54.510Z,6.10
2018-12-17T18:53:23.738Z,6.10
2018-12-17T18:55:58.310Z,6.10
2018-12-17T18:58:35.028Z,6.20
2018-12-17T19:01:04.653Z,6.20
2018-12-17T19:03:34.347Z,6.10
2018-12-17T19:06:05.794Z,6.10
2018-12-17T19:08:38.897Z,6.00
2018-12-17T19:11:08.770Z,6.00
2018-12-17T19:13:40.920Z,6.00
2018-12-17T19:16:12.208Z,6.00
2018-12-17T19:18:47.181Z,6.00
2018-12-17T19:21:17.414Z,6.00
2018-12-17T19:23:50.282Z,6.00
2018-12-17T19:26:19.270Z,5.90
2018-12-17T19:28:54.187Z,5.90
2018-12-17T19:31:26.578Z,5.80
2018-12-17T19:33:55.983Z,5.80
2018-12-17T19:36:30.982Z,5.80
2018-12-17T19:39:00.350Z,5.70
2018-12-17T19:41:30.371Z,5.70
2018-12-17T19:44:01.206Z,5.70
2018-12-17T19:46:33.275Z,5.60
2018-12-17T19:49:04.490Z,5.60
2018-12-17T19:51:39.373Z,5.60
2018-12-17T19:54:11.938Z,5.60
2018-12-17T19:56:44.741Z,5.60
2018-12-17T19:59:15.410Z,5.60
2018-12-17T20:01:58.182Z,5.50
2018-12-17T20:04:33.419Z,5.50
2018-12-17T20:07:09.385Z,5.50
2018-12-17T20:09:44.578Z,5.40
2018-12-17T20:12:13.745Z,5.40
2018-12-17T20:14:49.683Z,5.40
2018-12-17T20:17:24.580Z,5.40
2018-12-17T20:19:59.870Z,5.50
2018-12-17T20:22:34.614Z,5.50
2018-12-17T20:25:09.555Z,5.50
2018-12-17T20:27:44.141Z,5.50
2018-12-17T20:30:14.274Z,5.50
2018-12-17T20:32:53.383Z,5.50
2018-12-17T20:35:21.790Z,5.40
2018-12-17T20:37:56.842Z,5.40
2018-12-17T20:40:33.050Z,5.40
2018-12-17T20:43:08.488Z,5.40
2018-12-17T20:45:42.952Z,5.40
2018-12-17T20:48:12.170Z,5.40
2018-12-17T20:50:47.442Z,5.30
2018-12-17T20:53:19.946Z,5.30
2018-12-17T20:55:51.026Z,5.30
2018-12-17T20:58:22.165Z,5.30
2018-12-17T21:00:51.578Z,5.40
2018-12-17T21:03:24.395Z,5.30
2018-12-17T21:05:58.861Z,5.30
2018-12-17T21:08:32.632Z,5.30
2018-12-17T21:11:03.419Z,5.20
2018-12-17T21:13:38.558Z,5.20
2018-12-17T21:16:13.070Z,5.20
2018-12-17T21:18:53.514Z,5.20
2018-12-17T21:21:26.880Z,5.20
2018-12-17T21:24:00.534Z,5.20
2018-12-17T21:26:35.171Z,5.20
2018-12-17T21:29:04.584Z,5.20
2018-12-17T21:31:37.718Z,5.20
2018-12-17T21:34:12.894Z,5.20
2018-12-17T21:36:48.434Z,5.10
2018-12-17T21:39:23.111Z,5.10
2018-12-17T21:41:56.478Z,5.10
2018-12-17T21:44:31.434Z,5.10
2018-12-17T21:47:00.655Z,5.10
2018-12-17T21:49:33.334Z,5.10
2018-12-17T21:52:08.911Z,5.10
2018-12-17T21:54:41.875Z,5.10
2018-12-17T21:57:12.131Z,5.20
2018-12-17T21:59:42.470Z,5.20
2018-12-17T22:02:17.814Z,5.20
2018-12-17T22:04:52.466Z,5.20
2018-12-17T22:07:27.110Z,5.30
2018-12-17T22:10:02.484Z,5.30
2018-12-17T22:12:34.610Z,5.40
2018-12-17T22:15:04.943Z,5.40
2018-12-17T22:17:36.339Z,5.40
2018-12-17T22:20:06.526Z,5.40
2018-12-17T22:22:39.008Z,5.50
2018-12-17T22:25:08.793Z,5.50
2018-12-17T22:27:41.330Z,5.60
2018-12-17T22:30:16.838Z,5.60
2018-12-17T22:32:46.214Z,5.60
2018-12-17T22:35:21.054Z,5.70
2018-12-17T22:37:56.865Z,5.70
2018-12-17T22:40:29.782Z,5.70
2018-12-17T22:43:03.158Z,5.70
2018-12-17T22:45:38.310Z,5.80
2018-12-17T22:48:13.189Z,5.80
2018-12-17T22:50:46.091Z,5.80
2018-12-17T22:53:16.726Z,5.80
2018-12-17T22:55:49.278Z,5.80
2018-12-17T22:58:18.319Z,5.90
2018-12-17T23:00:48.115Z,5.90
2018-12-17T23:03:18.858Z,5.90
2018-12-17T23:05:55.430Z,5.90
2018-12-17T23:08:29.386Z,5.90
2018-12-17T23:11:10.208Z,5.90
2018-12-17T23:13:53.684Z,5.90
2018-12-17T23:16:34.261Z,6.00
2018-12-17T23:19:08.866Z,6.00
2018-12-17T23:21:43.857Z,6.00
2018-12-17T23:24:19.293Z,6.00
2018-12-17T23:26:54.141Z,6.00
2018-12-17T23:29:24.854Z,6.00
2018-12-17T23:32:00.398Z,6.10
2018-12-17T23:34:30.295Z,6.10
2018-12-17T23:37:03.330Z,6.10
2018-12-17T23:39:34.482Z,6.10
2018-12-17T23:42:08.791Z,6.10
2018-12-17T23:44:40.878Z,6.20
2018-12-17T23:47:14.086Z,6.20
2018-12-17T23:49:43.495Z,6.20
2018-12-17T23:52:16.103Z,6.20
2018-12-17T23:54:48.398Z,6.20
2018-12-17T23:57:18.991Z,6.20
2018-12-17T23:59:48.220Z,6.20
